Time;durP1;ratioP1;P1;durP2;ratioP2;P2;SDS_P1;SDS_P2;PMS_P1;PMS_P2;Temp;Humidity;BMP_temperature;BMP_pressure;BME280_temperature;BME280_humidity;BME280_pressure;Samples;Min_cycle;Max_cycle;Signal;HPM_P1;HPM_P2
2023/12/06 00:00:53;;;;;;;15.02;5.55;;;;;;;;;;5037450;28;20044;-42
2023/12/06 00:03:21;;;;;;;14.57;5.50;;;;;;;;;;5016150;28;20033;-42
2023/12/06 00:05:49;;;;;;;14.65;6.00;;;;;;;;;;5025004;28;20096;-44
2023/12/06 00:08:18;;;;;;;18.30;6.53;;;;;;;;;;5021486;28;20049;-42
2023/12/06 00:10:47;;;;;;;17.05;5.85;;;;;;;;;;5021388;28;20036;-44
2023/12/06 00:13:17;;;;;;;14.07;5.82;;;;;;;;;;5025185;28;20136;-43
2023/12/06 00:15:46;;;;;;;15.60;5.28;;;;;;;;;;5019721;28;20590;-42
2023/12/06 00:18:14;;;;;;;16.55;6.55;;;;;;;;;;5024966;28;20051;-43
2023/12/06 00:20:42;;;;;;;17.03;5.37;;;;;;;;;;5016529;28;20634;-42
2023/12/06 00:23:10;;;;;;;15.00;5.07;;;;;;;;;;5024397;28;20044;-41
2023/12/06 00:25:39;;;;;;;15.77;5.55;;;;;;;;;;5018263;28;20051;-42
2023/12/06 00:28:07;;;;;;;18.27;7.03;;;;;;;;;;5026741;28;20045;-43
2023/12/06 00:30:36;;;;;;;19.40;7.60;;;;;;;;;;5015683;28;20041;-43
2023/12/06 00:33:05;;;;;;;19.03;7.63;;;;;;;;;;5030062;28;20102;-43
2023/12/06 00:35:33;;;;;;;17.92;7.80;;;;;;;;;;5021059;28;20046;-42
2023/12/06 00:38:01;;;;;;;23.20;8.15;;;;;;;;;;5015929;28;20537;-42
2023/12/06 00:40:29;;;;;;;18.83;7.82;;;;;;;;;;5019680;28;20048;-42
2023/12/06 00:42:58;;;;;;;17.55;6.97;;;;;;;;;;5019725;28;20036;-43
2023/12/06 00:45:26;;;;;;;20.77;7.50;;;;;;;;;;5017379;28;20487;-42
2023/12/06 00:47:53;;;;;;;19.02;7.97;;;;;;;;;;5002722;28;21040;-42
2023/12/06 00:50:21;;;;;;;19.73;6.93;;;;;;;;;;5022894;28;20045;-42
2023/12/06 00:52:49;;;;;;;21.70;7.82;;;;;;;;;;5041859;28;20040;-43
2023/12/06 00:55:17;;;;;;;21.33;7.72;;;;;;;;;;5020911;28;20141;-41
2023/12/06 00:57:44;;;;;;;19.13;7.23;;;;;;;;;;5018495;28;20053;-42
2023/12/06 01:00:14;;;;;;;20.27;7.82;;;;;;;;;;5025653;28;20119;-42
2023/12/06 01:02:42;;;;;;;18.77;6.72;;;;;;;;;;5014878;28;20037;-43
2023/12/06 01:05:10;;;;;;;22.80;7.63;;;;;;;;;;5019040;28;20124;-42
2023/12/06 01:07:38;;;;;;;18.85;7.10;;;;;;;;;;5040619;28;20119;-42
2023/12/06 01:10:06;;;;;;;17.77;6.70;;;;;;;;;;5022561;28;20151;-44
2023/12/06 01:12:35;;;;;;;20.50;6.85;;;;;;;;;;5016410;28;20037;-42
2023/12/06 01:15:04;;;;;;;18.40;7.55;;;;;;;;;;5026997;28;20680;-42
2023/12/06 01:17:33;;;;;;;19.15;6.82;;;;;;;;;;5017798;28;20041;-42
2023/12/06 01:20:01;;;;;;;18.35;7.75;;;;;;;;;;5028398;28;20041;-43
2023/12/06 01:22:29;;;;;;;16.37;7.20;;;;;;;;;;5025720;28;20043;-45
2023/12/06 01:24:57;;;;;;;17.73;7.05;;;;;;;;;;5025124;28;20040;-42
2023/12/06 01:27:25;;;;;;;21.42;7.68;;;;;;;;;;5015733;28;20049;-43
2023/12/06 01:29:53;;;;;;;17.83;6.80;;;;;;;;;;5029595;28;20065;-42
2023/12/06 01:32:36;;;;;;;20.63;7.47;;;;;;;;;;5015888;28;20475;-42
2023/12/06 01:35:04;;;;;;;17.33;7.17;;;;;;;;;;5022639;28;20049;-42
2023/12/06 01:37:32;;;;;;;21.58;7.32;;;;;;;;;;5021767;28;20045;-42
2023/12/06 01:40:00;;;;;;;18.63;7.43;;;;;;;;;;5045373;28;20042;-42
2023/12/06 01:42:28;;;;;;;19.42;7.32;;;;;;;;;;5019946;28;20384;-42
2023/12/06 01:44:55;;;;;;;20.73;7.32;;;;;;;;;;5022252;28;20807;-42
2023/12/06 01:47:25;;;;;;;18.97;6.77;;;;;;;;;;5021291;28;20041;-43
2023/12/06 01:49:55;;;;;;;18.75;7.05;;;;;;;;;;5024882;28;20041;-42
2023/12/06 01:52:23;;;;;;;21.80;7.68;;;;;;;;;;5019837;28;20052;-42
2023/12/06 01:54:52;;;;;;;18.27;7.57;;;;;;;;;;5023041;28;20446;-42
2023/12/06 01:57:19;;;;;;;17.90;7.00;;;;;;;;;;5020352;28;20156;-42
2023/12/06 01:59:48;;;;;;;17.30;7.20;;;;;;;;;;5025524;28;20044;-42
2023/12/06 02:02:16;;;;;;;20.38;7.75;;;;;;;;;;5011625;28;20048;-42
2023/12/06 02:04:44;;;;;;;20.40;7.80;;;;;;;;;;5022840;28;20049;-41
2023/12/06 02:07:13;;;;;;;18.33;7.90;;;;;;;;;;5007796;28;20552;-44
2023/12/06 02:09:42;;;;;;;19.85;7.25;;;;;;;;;;5028572;28;20047;-43
2023/12/06 02:12:10;;;;;;;19.80;7.00;;;;;;;;;;5020095;28;20049;-45
2023/12/06 02:14:37;;;;;;;20.08;7.68;;;;;;;;;;5020151;28;20048;-42
2023/12/06 02:17:07;;;;;;;19.50;7.70;;;;;;;;;;5026161;28;20060;-42
2023/12/06 02:19:35;;;;;;;20.45;7.32;;;;;;;;;;5022302;28;20503;-43
2023/12/06 02:22:03;;;;;;;23.60;7.45;;;;;;;;;;5027076;28;20572;-42
2023/12/06 02:24:33;;;;;;;18.87;7.10;;;;;;;;;;5012325;28;20111;-42
2023/12/06 02:27:02;;;;;;;17.13;6.85;;;;;;;;;;5026017;28;20040;-43
2023/12/06 02:29:30;;;;;;;19.27;7.38;;;;;;;;;;5012654;28;20124;-42
2023/12/06 02:31:57;;;;;;;18.83;6.82;;;;;;;;;;5030305;28;20041;-43
2023/12/06 02:34:26;;;;;;;21.02;6.85;;;;;;;;;;5010830;28;20052;-43
2023/12/06 02:36:57;;;;;;;22.73;7.37;;;;;;;;;;5026512;28;20055;-43
2023/12/06 02:39:28;;;;;;;18.33;6.97;;;;;;;;;;5021559;28;20127;-42
2023/12/06 02:41:55;;;;;;;15.80;6.80;;;;;;;;;;5019258;28;20045;-43
2023/12/06 02:44:24;;;;;;;19.45;7.53;;;;;;;;;;4979741;28;20055;-42
2023/12/06 02:46:52;;;;;;;23.98;7.47;;;;;;;;;;5028348;28;20048;-42
2023/12/06 02:49:20;;;;;;;20.77;6.87;;;;;;;;;;5011780;28;20052;-43
2023/12/06 02:51:48;;;;;;;19.05;6.78;;;;;;;;;;4988142;28;20415;-42
2023/12/06 02:54:15;;;;;;;20.30;7.18;;;;;;;;;;5009670;28;20755;-42
2023/12/06 02:56:43;;;;;;;20.90;7.45;;;;;;;;;;5024670;28;20041;-42
2023/12/06 02:59:11;;;;;;;19.90;7.35;;;;;;;;;;5028575;28;20056;-42
2023/12/06 03:01:45;;;;;;;22.83;6.47;;;;;;;;;;5016072;28;20088;-44
2023/12/06 03:04:14;;;;;;;20.77;8.68;;;;;;;;;;5010965;28;20045;-43
2023/12/06 03:06:42;;;;;;;16.63;6.40;;;;;;;;;;5028109;28;20040;-42
2023/12/06 03:09:10;;;;;;;19.15;6.88;;;;;;;;;;5030923;28;20040;-42
2023/12/06 03:11:37;;;;;;;18.95;6.78;;;;;;;;;;5026842;28;20052;-42
2023/12/06 03:14:05;;;;;;;26.20;7.87;;;;;;;;;;5030243;28;20049;-42
2023/12/06 03:16:33;;;;;;;20.85;6.93;;;;;;;;;;5025572;28;20369;-42
2023/12/06 03:19:20;;;;;;;16.02;6.65;;;;;;;;;;5028314;28;20432;-43
2023/12/06 03:21:48;;;;;;;18.33;6.85;;;;;;;;;;5032158;28;20041;-42
2023/12/06 03:24:17;;;;;;;21.92;8.02;;;;;;;;;;5027882;28;20095;-44
2023/12/06 03:26:44;;;;;;;18.37;7.07;;;;;;;;;;5025633;28;20146;-42
2023/12/06 03:29:12;;;;;;;22.45;8.15;;;;;;;;;;5035336;28;20049;-42
2023/12/06 03:31:41;;;;;;;19.40;8.40;;;;;;;;;;5014052;28;21218;-42
2023/12/06 03:34:09;;;;;;;19.88;7.82;;;;;;;;;;5034413;28;20124;-43
2023/12/06 03:36:38;;;;;;;17.13;6.85;;;;;;;;;;5024456;28;20522;-44
2023/12/06 03:39:06;;;;;;;18.43;6.93;;;;;;;;;;5033699;28;20068;-42
2023/12/06 03:41:34;;;;;;;16.27;6.38;;;;;;;;;;5025893;28;20115;-42
2023/12/06 03:44:02;;;;;;;22.88;8.18;;;;;;;;;;5031790;28;20048;-42
2023/12/06 03:46:30;;;;;;;21.77;7.13;;;;;;;;;;5025526;28;20123;-42
2023/12/06 03:48:58;;;;;;;17.92;7.78;;;;;;;;;;5007299;28;20045;-43
2023/12/06 03:51:26;;;;;;;19.10;7.57;;;;;;;;;;5022553;28;20052;-42
2023/12/06 03:53:56;;;;;;;16.75;6.47;;;;;;;;;;5023552;28;20049;-44
2023/12/06 03:56:24;;;;;;;21.63;7.45;;;;;;;;;;5026624;28;20041;-42
2023/12/06 03:58:53;;;;;;;21.02;6.30;;;;;;;;;;5024685;28;20053;-42
2023/12/06 04:01:21;;;;;;;17.30;6.35;;;;;;;;;;5023863;28;20059;-42
2023/12/06 04:03:49;;;;;;;18.47;6.47;;;;;;;;;;5021128;28;20045;-42
2023/12/06 04:06:17;;;;;;;21.88;6.53;;;;;;;;;;5022175;28;20076;-42
2023/12/06 04:08:46;;;;;;;18.67;6.28;;;;;;;;;;5014293;28;20741;-42
2023/12/06 04:11:16;;;;;;;19.13;6.35;;;;;;;;;;5031156;28;20043;-42
2023/12/06 04:13:43;;;;;;;15.18;5.43;;;;;;;;;;5023769;28;20698;-42
2023/12/06 04:16:11;;;;;;;16.73;5.63;;;;;;;;;;5024929;28;20068;-42
2023/12/06 04:18:57;;;;;;;17.80;6.13;;;;;;;;;;5024134;28;20041;-42
2023/12/06 04:21:25;;;;;;;14.82;5.45;;;;;;;;;;5030914;28;20052;-43
2023/12/06 04:23:53;;;;;;;21.55;6.00;;;;;;;;;;5022980;28;20045;-45
2023/12/06 04:26:23;;;;;;;22.83;5.88;;;;;;;;;;5028768;28;20033;-42
2023/12/06 04:28:50;;;;;;;17.90;6.10;;;;;;;;;;5028261;28;20124;-42
2023/12/06 04:31:18;;;;;;;16.98;5.70;;;;;;;;;;5048781;28;20102;-43
2023/12/06 04:33:46;;;;;;;29.23;5.88;;;;;;;;;;5006155;28;20043;-42
2023/12/06 04:36:14;;;;;;;15.57;5.57;;;;;;;;;;5025370;28;20041;-43
2023/12/06 04:38:42;;;;;;;15.90;4.65;;;;;;;;;;5051745;28;20044;-42
2023/12/06 04:41:10;;;;;;;20.13;5.90;;;;;;;;;;5021855;28;20114;-42
2023/12/06 04:43:39;;;;;;;17.63;5.40;;;;;;;;;;5036150;28;20079;-42
2023/12/06 04:46:07;;;;;;;16.20;5.40;;;;;;;;;;5023444;28;20037;-43
2023/12/06 04:48:35;;;;;;;16.33;5.90;;;;;;;;;;5026595;28;20060;-43
2023/12/06 04:51:03;;;;;;;17.90;5.90;;;;;;;;;;5009451;28;20503;-42
2023/12/06 04:53:31;;;;;;;19.50;5.40;;;;;;;;;;5027538;28;20136;-42
2023/12/06 04:55:59;;;;;;;15.00;5.30;;;;;;;;;;5019205;28;20052;-42
2023/12/06 04:58:26;;;;;;;19.75;5.95;;;;;;;;;;5026768;28;20060;-42
2023/12/06 05:00:56;;;;;;;18.88;6.50;;;;;;;;;;5022435;28;20110;-42
2023/12/06 05:03:24;;;;;;;20.77;6.53;;;;;;;;;;5014865;28;20041;-41
2023/12/06 05:05:52;;;;;;;16.80;5.47;;;;;;;;;;5019285;28;20403;-42
2023/12/06 05:08:19;;;;;;;14.13;5.47;;;;;;;;;;5016751;28;20041;-42
2023/12/06 05:10:47;;;;;;;18.67;6.85;;;;;;;;;;5031206;28;20037;-43
2023/12/06 05:13:32;;;;;;;18.02;6.78;;;;;;;;;;5022603;28;20231;-42
2023/12/06 05:16:03;;;;;;;19.15;6.40;;;;;;;;;;5026273;28;20064;-42
2023/12/06 05:18:31;;;;;;;13.97;5.17;;;;;;;;;;5018068;28;20561;-43
2023/12/06 05:20:59;;;;;;;17.05;5.57;;;;;;;;;;5032989;28;20121;-42
2023/12/06 05:23:44;;;;;;;17.50;5.97;;;;;;;;;;5022429;28;20109;-42
2023/12/06 05:26:12;;;;;;;18.92;6.20;;;;;;;;;;5024902;28;20037;-42
2023/12/06 05:28:40;;;;;;;18.50;6.22;;;;;;;;;;5022685;28;20068;-42
2023/12/06 05:31:09;;;;;;;17.63;6.43;;;;;;;;;;5030928;28;20233;-42
2023/12/06 05:33:37;;;;;;;13.45;5.00;;;;;;;;;;5023793;28;20047;-44
2023/12/06 05:36:07;;;;;;;18.20;5.90;;;;;;;;;;5023638;28;20041;-42
2023/12/06 05:38:35;;;;;;;14.07;5.63;;;;;;;;;;5027870;28;20099;-42
2023/12/06 05:41:04;;;;;;;16.27;5.72;;;;;;;;;;5024295;28;20107;-45
2023/12/06 05:43:31;;;;;;;16.20;5.57;;;;;;;;;;5029971;28;20094;-42
2023/12/06 05:45:59;;;;;;;16.60;5.07;;;;;;;;;;5023534;28;20037;-42
2023/12/06 05:48:29;;;;;;;19.73;6.32;;;;;;;;;;5022535;28;20287;-42
2023/12/06 05:50:56;;;;;;;20.13;6.53;;;;;;;;;;5015764;28;20049;-44
2023/12/06 05:53:24;;;;;;;16.23;6.35;;;;;;;;;;5015272;28;20061;-43
2023/12/06 05:55:52;;;;;;;16.43;5.77;;;;;;;;;;5020561;28;20045;-42
2023/12/06 05:58:20;;;;;;;15.30;6.07;;;;;;;;;;5032199;28;20989;-42
2023/12/06 06:00:47;;;;;;;15.20;5.63;;;;;;;;;;5020629;28;20491;-42
2023/12/06 06:03:15;;;;;;;18.48;6.10;;;;;;;;;;5013660;28;20042;-42
2023/12/06 06:05:44;;;;;;;19.15;6.03;;;;;;;;;;5017586;28;20044;-42
2023/12/06 06:08:12;;;;;;;19.17;6.00;;;;;;;;;;5031028;28;20033;-44
2023/12/06 06:10:40;;;;;;;14.68;6.18;;;;;;;;;;5016530;28;20037;-42
2023/12/06 06:13:08;;;;;;;15.27;6.20;;;;;;;;;;5030529;28;20045;-44
2023/12/06 06:15:36;;;;;;;16.10;6.15;;;;;;;;;;5011623;28;20033;-42
2023/12/06 06:18:05;;;;;;;17.92;5.68;;;;;;;;;;5022782;28;20122;-43
2023/12/06 06:20:33;;;;;;;15.10;5.07;;;;;;;;;;5010039;28;20049;-42
2023/12/06 06:23:03;;;;;;;17.92;6.38;;;;;;;;;;5022097;28;20069;-42
2023/12/06 06:25:30;;;;;;;18.27;6.20;;;;;;;;;;5010028;28;20045;-42
2023/12/06 06:27:58;;;;;;;17.08;6.40;;;;;;;;;;5012007;28;20037;-42
2023/12/06 06:30:26;;;;;;;15.80;5.40;;;;;;;;;;5015215;28;20041;-42
2023/12/06 06:32:56;;;;;;;14.23;5.33;;;;;;;;;;5022956;28;20037;-42
2023/12/06 06:35:24;;;;;;;14.57;4.97;;;;;;;;;;5025040;28;20045;-42
2023/12/06 06:37:52;;;;;;;19.52;5.63;;;;;;;;;;5024248;28;20043;-42
2023/12/06 06:40:22;;;;;;;15.15;5.82;;;;;;;;;;5023709;28;20036;-42
2023/12/06 06:42:50;;;;;;;13.30;5.90;;;;;;;;;;5023268;28;20048;-42
2023/12/06 06:45:18;;;;;;;16.90;5.97;;;;;;;;;;5021041;28;20049;-42
2023/12/06 06:47:46;;;;;;;19.58;6.03;;;;;;;;;;5016764;28;20160;-42
2023/12/06 06:50:15;;;;;;;19.30;6.22;;;;;;;;;;5028554;28;20470;-42
2023/12/06 06:52:48;;;;;;;22.55;6.43;;;;;;;;;;5025729;28;20052;-42
2023/12/06 06:55:16;;;;;;;17.60;5.43;;;;;;;;;;5019457;28;20044;-42
2023/12/06 06:57:45;;;;;;;17.13;5.53;;;;;;;;;;5016885;28;20045;-44
2023/12/06 07:00:15;;;;;;;18.75;5.15;;;;;;;;;;5018962;28;20048;-42
2023/12/06 07:02:57;;;;;;;18.73;6.07;;;;;;;;;;5008082;28;20037;-42
2023/12/06 07:05:25;;;;;;;18.83;5.72;;;;;;;;;;5022397;28;20045;-43
2023/12/06 07:07:55;;;;;;;19.02;5.88;;;;;;;;;;5018492;28;20136;-42
2023/12/06 07:10:23;;;;;;;16.63;5.63;;;;;;;;;;5023957;28;20049;-42
2023/12/06 07:12:52;;;;;;;17.13;6.35;;;;;;;;;;5019252;28;20052;-43
2023/12/06 07:15:20;;;;;;;18.70;6.80;;;;;;;;;;5006736;28;20049;-43
2023/12/06 07:17:48;;;;;;;18.55;6.45;;;;;;;;;;5019662;28;20051;-42
2023/12/06 07:20:18;;;;;;;20.45;6.93;;;;;;;;;;5016737;28;20041;-42
2023/12/06 07:22:46;;;;;;;22.30;9.00;;;;;;;;;;5021667;28;20029;-43
2023/12/06 07:25:15;;;;;;;19.48;6.53;;;;;;;;;;5035143;28;20045;-42
2023/12/06 07:27:45;;;;;;;18.77;7.28;;;;;;;;;;5023138;28;20051;-42
2023/12/06 07:30:16;;;;;;;17.63;6.55;;;;;;;;;;5024052;28;20047;-43
2023/12/06 07:32:44;;;;;;;21.13;6.90;;;;;;;;;;5018398;28;20036;-42
2023/12/06 07:35:22;;;;;;;20.27;6.93;;;;;;;;;;5016426;28;20442;-42
2023/12/06 07:37:50;;;;;;;21.92;8.25;;;;;;;;;;5016881;28;20056;-43
2023/12/06 07:40:18;;;;;;;21.20;7.45;;;;;;;;;;5021352;28;20653;-43
2023/12/06 07:42:47;;;;;;;20.65;6.80;;;;;;;;;;5027440;28;20099;-42
2023/12/06 07:45:16;;;;;;;21.05;6.55;;;;;;;;;;5019286;28;20047;-42
2023/12/06 07:47:44;;;;;;;19.20;5.87;;;;;;;;;;5026391;28;20048;-43
2023/12/06 07:50:12;;;;;;;21.58;7.32;;;;;;;;;;5022032;28;20048;-42
2023/12/06 07:52:40;;;;;;;19.75;7.60;;;;;;;;;;5027905;28;20040;-42
2023/12/06 07:55:10;;;;;;;19.52;6.85;;;;;;;;;;5020458;28;20045;-43
2023/12/06 07:57:38;;;;;;;18.73;7.30;;;;;;;;;;5021133;28;20040;-44
2023/12/06 08:00:07;;;;;;;19.93;7.23;;;;;;;;;;5016753;28;20072;-42
2023/12/06 08:02:39;;;;;;;27.25;7.80;;;;;;;;;;5020721;28;20041;-42
2023/12/06 08:05:09;;;;;;;26.95;8.65;;;;;;;;;;5017704;28;20045;-43
2023/12/06 08:07:37;;;;;;;34.47;8.90;;;;;;;;;;5017750;28;20565;-43
2023/12/06 08:10:09;;;;;;;37.03;8.93;;;;;;;;;;5027271;28;20041;-42
2023/12/06 08:12:37;;;;;;;40.83;10.47;;;;;;;;;;5030323;28;20041;-43
2023/12/06 08:15:05;;;;;;;36.40;9.25;;;;;;;;;;5019227;28;20079;-42
2023/12/06 08:17:33;;;;;;;35.38;8.95;;;;;;;;;;5027337;28;20295;-43
2023/12/06 08:20:05;;;;;;;53.10;11.27;;;;;;;;;;5019842;28;20071;-42
2023/12/06 08:22:32;;;;;;;67.60;12.02;;;;;;;;;;5029679;28;20099;-43
2023/12/06 08:25:00;;;;;;;52.87;11.07;;;;;;;;;;5023205;28;20060;-42
2023/12/06 08:27:29;;;;;;;54.45;10.25;;;;;;;;;;4329035;28;10000219;-42
2023/12/06 08:29:57;;;;;;;52.90;9.43;;;;;;;;;;5011799;28;20057;-42
2023/12/06 08:32:45;;;;;;;51.65;9.80;;;;;;;;;;5021040;28;24067;-42
2023/12/06 08:35:16;;;;;;;48.40;10.47;;;;;;;;;;5022142;28;20581;-42
2023/12/06 08:37:44;;;;;;;37.20;7.97;;;;;;;;;;5014196;28;20063;-43
2023/12/06 08:40:13;;;;;;;40.70;8.55;;;;;;;;;;5022278;28;20051;-42
2023/12/06 08:42:41;;;;;;;59.17;9.52;;;;;;;;;;5011544;28;20049;-42
2023/12/06 08:45:10;;;;;;;40.00;9.32;;;;;;;;;;5020762;28;20068;-42
2023/12/06 08:47:39;;;;;;;57.97;9.60;;;;;;;;;;5013157;28;20044;-42
2023/12/06 08:50:08;;;;;;;42.13;8.93;;;;;;;;;;5018262;28;20463;-42
2023/12/06 08:52:39;;;;;;;53.47;9.10;;;;;;;;;;5014857;28;20689;-42
2023/12/06 08:55:25;;;;;;;45.40;8.50;;;;;;;;;;5016578;28;20052;-43
2023/12/06 08:57:53;;;;;;;42.28;10.27;;;;;;;;;;5016967;28;20111;-42
2023/12/06 09:00:20;;;;;;;51.40;9.40;;;;;;;;;;5005450;28;20107;-43
2023/12/06 09:02:48;;;;;;;49.28;8.13;;;;;;;;;;4325114;28;10000863;-43
2023/12/06 09:05:16;;;;;;;52.63;9.40;;;;;;;;;;4990726;28;20056;-41
2023/12/06 09:07:45;;;;;;;40.17;7.63;;;;;;;;;;5001296;28;21472;-42
2023/12/06 09:10:13;;;;;;;46.92;8.07;;;;;;;;;;4994098;28;20414;-43
2023/12/06 09:12:42;;;;;;;52.15;7.85;;;;;;;;;;4987389;28;20044;-43
2023/12/06 09:17:57;;;;;;;46.08;8.00;;;;;;;;;;5011619;28;20639;-43
2023/12/06 09:20:25;;;;;;;32.03;7.43;;;;;;;;;;5005184;28;20795;-43
2023/12/06 09:22:54;;;;;;;41.92;8.30;;;;;;;;;;5017472;28;20045;-42
2023/12/06 09:25:23;;;;;;;40.30;8.07;;;;;;;;;;5017599;28;20065;-43
2023/12/06 09:27:53;;;;;;;37.13;7.25;;;;;;;;;;4998439;28;20049;-42
2023/12/06 09:30:20;;;;;;;34.30;8.43;;;;;;;;;;5020160;28;20123;-43
2023/12/06 09:32:48;;;;;;;30.30;7.67;;;;;;;;;;5021810;28;20492;-42
2023/12/06 09:35:16;;;;;;;39.65;8.75;;;;;;;;;;5011739;28;20044;-42
2023/12/06 09:37:44;;;;;;;37.15;7.55;;;;;;;;;;5025675;28;20480;-42
2023/12/06 09:40:14;;;;;;;35.28;7.20;;;;;;;;;;5024857;28;20547;-42
2023/12/06 09:42:43;;;;;;;40.45;8.95;;;;;;;;;;5020302;28;20527;-42
2023/12/06 09:45:12;;;;;;;34.13;7.23;;;;;;;;;;5017595;28;20582;-42
2023/12/06 09:47:42;;;;;;;33.28;6.95;;;;;;;;;;5024153;28;20044;-42
2023/12/06 09:50:11;;;;;;;32.83;6.22;;;;;;;;;;5012162;28;20052;-42
2023/12/06 09:52:39;;;;;;;36.55;7.40;;;;;;;;;;5012781;28;20037;-44
2023/12/06 09:55:07;;;;;;;37.20;6.80;;;;;;;;;;5024897;28;20037;-42
2023/12/06 09:57:37;;;;;;;46.00;7.30;;;;;;;;;;5000180;28;20878;-43
2023/12/06 10:00:06;;;;;;;38.75;7.97;;;;;;;;;;5020330;28;20051;-42
2023/12/06 10:02:47;;;;;;;34.72;7.00;;;;;;;;;;5018987;28;20497;-45
2023/12/06 10:05:15;;;;;;;45.55;7.65;;;;;;;;;;5045418;28;20780;-42
2023/12/06 10:07:43;;;;;;;41.72;7.85;;;;;;;;;;5018064;28;20037;-42
2023/12/06 10:10:13;;;;;;;52.20;8.77;;;;;;;;;;5023020;28;20029;-42
2023/12/06 10:12:48;;;;;;;35.35;8.68;;;;;;;;;;5021423;28;20537;-43
2023/12/06 10:15:16;;;;;;;37.22;7.03;;;;;;;;;;5021864;28;20037;-42
2023/12/06 10:17:43;;;;;;;42.10;7.85;;;;;;;;;;5022785;28;20052;-43
2023/12/06 10:20:12;;;;;;;37.22;8.52;;;;;;;;;;5022597;28;20045;-42
2023/12/06 10:22:40;;;;;;;37.40;8.03;;;;;;;;;;5024029;28;20503;-42
2023/12/06 10:25:09;;;;;;;38.58;8.57;;;;;;;;;;5012002;28;20045;-46
2023/12/06 10:27:37;;;;;;;37.08;8.23;;;;;;;;;;5017594;28;20040;-42
2023/12/06 10:30:07;;;;;;;27.98;7.93;;;;;;;;;;5019710;28;20539;-43
2023/12/06 10:32:36;;;;;;;33.80;7.80;;;;;;;;;;5021095;28;20060;-44
2023/12/06 10:35:05;;;;;;;42.73;9.57;;;;;;;;;;5015172;28;20043;-42
2023/12/06 10:37:33;;;;;;;38.28;8.20;;;;;;;;;;5016411;28;20040;-43
2023/12/06 10:40:09;;;;;;;37.60;8.45;;;;;;;;;;5011198;28;20087;-42
2023/12/06 10:42:40;;;;;;;36.08;7.57;;;;;;;;;;5027214;28;20048;-42
2023/12/06 10:45:11;;;;;;;32.88;6.97;;;;;;;;;;5013867;28;20048;-46
2023/12/06 10:47:40;;;;;;;30.47;6.83;;;;;;;;;;5021932;28;20052;-43
2023/12/06 10:50:10;;;;;;;27.65;7.30;;;;;;;;;;5016174;28;20065;-45
2023/12/06 10:52:38;;;;;;;23.90;5.72;;;;;;;;;;5016949;28;20143;-42
2023/12/06 10:55:06;;;;;;;23.48;6.50;;;;;;;;;;5024254;28;20060;-44
2023/12/06 10:57:37;;;;;;;19.30;4.68;;;;;;;;;;4999303;28;20045;-43
2023/12/06 11:00:07;;;;;;;27.10;5.53;;;;;;;;;;4992631;28;20721;-43
2023/12/06 11:02:40;;;;;;;25.27;6.85;;;;;;;;;;4447486;28;10000858;-42
2023/12/06 11:05:12;;;;;;;21.33;5.43;;;;;;;;;;4996916;28;20259;-42
2023/12/06 11:07:45;;;;;;;23.02;5.57;;;;;;;;;;5019768;28;20138;-42
2023/12/06 11:10:18;;;;;;;22.40;5.30;;;;;;;;;;5018614;28;20084;-43
2023/12/06 11:12:53;;;;;;;21.33;5.20;;;;;;;;;;5025254;28;20033;-42
2023/12/06 11:15:28;;;;;;;18.43;4.90;;;;;;;;;;5016199;28;20356;-42
2023/12/06 11:18:02;;;;;;;23.60;6.55;;;;;;;;;;5031997;28;20045;-43
2023/12/06 11:20:31;;;;;;;23.55;6.22;;;;;;;;;;5018410;28;20038;-43
2023/12/06 11:22:59;;;;;;;24.40;7.32;;;;;;;;;;5047799;28;20041;-42
2023/12/06 11:25:28;;;;;;;24.25;7.25;;;;;;;;;;5010397;28;20045;-43
2023/12/06 11:27:56;;;;;;;25.57;7.80;;;;;;;;;;5019573;28;20114;-44
2023/12/06 11:30:24;;;;;;;22.27;7.45;;;;;;;;;;5016319;28;20115;-43
2023/12/06 11:32:54;;;;;;;22.98;7.22;;;;;;;;;;5020346;28;20041;-44
2023/12/06 11:35:25;;;;;;;30.42;8.30;;;;;;;;;;5016927;28;20044;-43
2023/12/06 11:37:55;;;;;;;22.58;6.40;;;;;;;;;;5019084;28;20099;-44
2023/12/06 11:40:23;;;;;;;20.33;7.70;;;;;;;;;;5018761;28;20145;-44
2023/12/06 11:42:58;;;;;;;19.58;7.13;;;;;;;;;;5018990;28;20131;-44
2023/12/06 11:45:26;;;;;;;18.92;7.43;;;;;;;;;;5003278;28;20052;-43
2023/12/06 11:47:54;;;;;;;15.82;6.57;;;;;;;;;;5005903;28;20048;-43
2023/12/06 11:50:23;;;;;;;20.05;6.18;;;;;;;;;;5007217;28;20041;-42
2023/12/06 11:52:53;;;;;;;18.97;5.60;;;;;;;;;;5005219;28;20603;-44
2023/12/06 11:55:23;;;;;;;17.58;4.95;;;;;;;;;;5007353;28;20068;-44
2023/12/06 11:58:01;;;;;;;13.50;3.85;;;;;;;;;;5003865;28;20454;-44
2023/12/06 12:00:30;;;;;;;10.93;3.55;;;;;;;;;;5014084;28;20816;-47
2023/12/06 12:02:59;;;;;;;15.85;3.83;;;;;;;;;;4999176;28;20049;-44
2023/12/06 12:05:27;;;;;;;10.53;3.90;;;;;;;;;;5003352;28;20710;-42
2023/12/06 12:07:57;;;;;;;10.48;3.90;;;;;;;;;;5007165;28;20056;-43
2023/12/06 12:10:25;;;;;;;10.98;3.67;;;;;;;;;;5009123;28;21261;-43
2023/12/06 12:12:53;;;;;;;11.30;3.47;;;;;;;;;;5010933;28;20047;-43
2023/12/06 12:15:21;;;;;;;12.95;3.95;;;;;;;;;;5006501;28;20419;-42
2023/12/06 12:17:49;;;;;;;14.10;4.50;;;;;;;;;;5011385;28;21138;-43
2023/12/06 12:20:17;;;;;;;12.32;3.97;;;;;;;;;;5003728;28;20045;-44
2023/12/06 12:22:48;;;;;;;12.05;3.28;;;;;;;;;;5007049;28;20053;-43
2023/12/06 12:25:18;;;;;;;13.25;3.67;;;;;;;;;;4994854;28;20052;-43
2023/12/06 12:27:46;;;;;;;14.65;4.25;;;;;;;;;;5008253;28;20653;-43
2023/12/06 12:30:15;;;;;;;11.43;4.23;;;;;;;;;;5003291;28;20099;-42
2023/12/06 12:32:45;;;;;;;10.00;4.00;;;;;;;;;;5007463;28;20612;-43
2023/12/06 12:35:15;;;;;;;12.23;4.05;;;;;;;;;;4997210;28;21633;-43
2023/12/06 12:37:44;;;;;;;9.55;3.25;;;;;;;;;;5009302;28;20040;-45
2023/12/06 12:40:23;;;;;;;14.98;3.50;;;;;;;;;;4988706;28;10001027;-42
2023/12/06 12:42:52;;;;;;;8.88;2.78;;;;;;;;;;5001527;28;20282;-44
2023/12/06 12:45:20;;;;;;;9.85;3.05;;;;;;;;;;4996656;28;20060;-43
2023/12/06 12:47:47;;;;;;;10.00;3.67;;;;;;;;;;4999113;28;20049;-42
2023/12/06 12:50:18;;;;;;;13.30;3.58;;;;;;;;;;4997927;28;20054;-43
2023/12/06 12:52:45;;;;;;;11.77;3.60;;;;;;;;;;4994530;28;20043;-43
2023/12/06 12:55:16;;;;;;;10.27;3.65;;;;;;;;;;4992345;28;20049;-43
2023/12/06 12:57:46;;;;;;;10.77;3.40;;;;;;;;;;5000567;28;20669;-42
2023/12/06 13:00:24;;;;;;;10.48;4.03;;;;;;;;;;4998878;28;20049;-43
2023/12/06 13:02:53;;;;;;;9.32;3.47;;;;;;;;;;4999626;28;20084;-42
2023/12/06 13:05:21;;;;;;;13.73;3.50;;;;;;;;;;4990871;28;20044;-43
2023/12/06 13:07:53;;;;;;;11.32;3.58;;;;;;;;;;4995706;28;20510;-43
2023/12/06 13:10:22;;;;;;;10.55;3.38;;;;;;;;;;5025063;28;20052;-42
2023/12/06 13:12:52;;;;;;;9.55;3.25;;;;;;;;;;4993006;28;20056;-42
2023/12/06 13:15:19;;;;;;;11.18;3.63;;;;;;;;;;4985848;28;20076;-43
2023/12/06 13:17:48;;;;;;;12.00;3.53;;;;;;;;;;4997610;28;20054;-44
2023/12/06 13:20:16;;;;;;;9.55;3.83;;;;;;;;;;4991858;28;20068;-42
2023/12/06 13:22:44;;;;;;;10.00;4.00;;;;;;;;;;4990417;28;20052;-42
2023/12/06 13:25:12;;;;;;;15.60;4.07;;;;;;;;;;4656733;28;10000522;-42
2023/12/06 13:27:40;;;;;;;13.18;4.60;;;;;;;;;;4996922;28;20045;-42
2023/12/06 13:30:10;;;;;;;13.27;4.40;;;;;;;;;;4992518;28;20545;-42
2023/12/06 13:32:37;;;;;;;11.93;4.00;;;;;;;;;;4995803;28;20041;-43
2023/12/06 13:35:06;;;;;;;12.57;4.07;;;;;;;;;;4992586;28;20032;-42
2023/12/06 13:37:49;;;;;;;12.07;4.32;;;;;;;;;;4992596;28;20110;-42
2023/12/06 13:40:17;;;;;;;10.88;4.07;;;;;;;;;;5002925;28;20045;-43
2023/12/06 13:42:45;;;;;;;12.27;4.70;;;;;;;;;;5006830;28;20041;-42
2023/12/06 13:45:14;;;;;;;12.57;4.38;;;;;;;;;;5001254;28;20044;-42
2023/12/06 13:47:42;;;;;;;15.43;4.50;;;;;;;;;;5009092;28;20037;-42
2023/12/06 13:50:10;;;;;;;10.98;3.85;;;;;;;;;;5000736;28;20862;-42
2023/12/06 13:52:38;;;;;;;10.48;4.20;;;;;;;;;;5002134;28;20037;-42
2023/12/06 13:55:08;;;;;;;11.33;5.03;;;;;;;;;;4997507;28;20611;-42
2023/12/06 13:57:36;;;;;;;13.98;4.78;;;;;;;;;;4998873;28;20036;-44
2023/12/06 14:00:05;;;;;;;14.07;4.63;;;;;;;;;;5004159;28;20044;-43
2023/12/06 14:02:36;;;;;;;11.20;4.60;;;;;;;;;;5003414;28;20500;-43
2023/12/06 14:05:04;;;;;;;12.23;4.82;;;;;;;;;;5008739;28;20107;-42
2023/12/06 14:07:33;;;;;;;13.53;4.40;;;;;;;;;;4995796;28;20064;-42
2023/12/06 14:10:01;;;;;;;12.77;4.65;;;;;;;;;;5011434;28;20041;-42
2023/12/06 14:12:29;;;;;;;11.57;4.75;;;;;;;;;;5011840;28;20068;-42
2023/12/06 14:14:56;;;;;;;13.40;4.93;;;;;;;;;;5001651;28;20076;-42
2023/12/06 14:17:25;;;;;;;13.98;4.80;;;;;;;;;;5008173;28;20044;-42
2023/12/06 14:19:55;;;;;;;12.80;5.43;;;;;;;;;;5002320;28;20073;-43
2023/12/06 14:22:22;;;;;;;13.10;4.95;;;;;;;;;;4996865;28;20041;-45
2023/12/06 14:24:50;;;;;;;12.20;4.97;;;;;;;;;;5003507;28;20053;-43
2023/12/06 14:27:18;;;;;;;12.88;4.82;;;;;;;;;;4989538;28;20037;-42
2023/12/06 14:29:45;;;;;;;10.73;4.53;;;;;;;;;;5008467;28;20044;-42
2023/12/06 14:32:16;;;;;;;13.13;4.73;;;;;;;;;;5005783;28;20059;-43
2023/12/06 14:34:45;;;;;;;11.35;4.05;;;;;;;;;;5002269;28;20033;-42
2023/12/06 14:37:14;;;;;;;13.57;5.00;;;;;;;;;;5002078;28;20044;-42
2023/12/06 14:39:42;;;;;;;17.50;4.22;;;;;;;;;;5008795;28;20060;-44
2023/12/06 14:42:10;;;;;;;11.40;4.20;;;;;;;;;;5003153;28;20052;-42